sensor_id;sensor_type;location;lat;lon;timestamp;temperature;humidity
18658;DHT22;9458;50.942;5.074;2022-08-21T00:02:03;18.40;99.90
18658;DHT22;9458;50.942;5.074;2022-08-21T00:04:30;18.50;99.90
18658;DHT22;9458;50.942;5.074;2022-08-21T00:06:59;18.50;99.90
18658;DHT22;9458;50.942;5.074;2022-08-21T00:09:29;18.50;99.90
18658;DHT22;9458;50.942;5.074;2022-08-21T00:11:56;18.50;99.90
18658;DHT22;9458;50.942;5.074;2022-08-21T00:14:24;18.60;99.90
18658;DHT22;9458;50.942;5.074;2022-08-21T00:16:53;18.60;99.90
18658;DHT22;9458;50.942;5.074;2022-08-21T00:19:21;18.60;99.90
18658;DHT22;9458;50.942;5.074;2022-08-21T00:21:55;18.70;99.90
18658;DHT22;9458;50.942;5.074;2022-08-21T00:24:34;18.70;99.90
18658;DHT22;9458;50.942;5.074;2022-08-21T00:27:02;18.70;99.90
18658;DHT22;9458;50.942;5.074;2022-08-21T00:29:30;18.80;99.90
18658;DHT22;9458;50.942;5.074;2022-08-21T00:31:58;18.80;99.90
18658;DHT22;9458;50.942;5.074;2022-08-21T00:34:27;18.80;99.90
18658;DHT22;9458;50.942;5.074;2022-08-21T00:36:54;18.80;99.90
18658;DHT22;9458;50.942;5.074;2022-08-21T00:39:21;18.80;99.90
18658;DHT22;9458;50.942;5.074;2022-08-21T00:41:50;18.80;99.90
18658;DHT22;9458;50.942;5.074;2022-08-21T00:44:18;18.80;99.90
18658;DHT22;9458;50.942;5.074;2022-08-21T00:46:46;18.70;99.90
18658;DHT22;9458;50.942;5.074;2022-08-21T00:49:14;18.70;99.90
18658;DHT22;9458;50.942;5.074;2022-08-21T00:51:47;18.70;99.90
18658;DHT22;9458;50.942;5.074;2022-08-21T00:54:17;18.60;99.90
18658;DHT22;9458;50.942;5.074;2022-08-21T00:56:47;18.60;99.90
18658;DHT22;9458;50.942;5.074;2022-08-21T00:59:18;18.60;99.90
18658;DHT22;9458;50.942;5.074;2022-08-21T01:01:47;18.50;99.90
18658;DHT22;9458;50.942;5.074;2022-08-21T01:04:16;18.40;99.90
18658;DHT22;9458;50.942;5.074;2022-08-21T01:06:43;18.40;99.90
18658;DHT22;9458;50.942;5.074;2022-08-21T01:09:13;18.40;99.90
18658;DHT22;9458;50.942;5.074;2022-08-21T01:11:41;18.30;99.90
18658;DHT22;9458;50.942;5.074;2022-08-21T01:14:10;18.30;99.90
18658;DHT22;9458;50.942;5.074;2022-08-21T01:16:43;18.30;99.90
18658;DHT22;9458;50.942;5.074;2022-08-21T01:19:13;18.20;99.90
18658;DHT22;9458;50.942;5.074;2022-08-21T01:21:42;18.20;99.90
18658;DHT22;9458;50.942;5.074;2022-08-21T01:24:10;18.10;99.90
18658;DHT22;9458;50.942;5.074;2022-08-21T01:26:38;18.10;99.90
18658;DHT22;9458;50.942;5.074;2022-08-21T01:29:13;18.10;99.90
18658;DHT22;9458;50.942;5.074;2022-08-21T01:31:41;18.10;99.90
18658;DHT22;9458;50.942;5.074;2022-08-21T01:34:10;18.00;99.90
18658;DHT22;9458;50.942;5.074;2022-08-21T01:36:38;18.00;99.90
18658;DHT22;9458;50.942;5.074;2022-08-21T01:39:07;18.00;99.90
18658;DHT22;9458;50.942;5.074;2022-08-21T01:41:34;18.00;99.90
18658;DHT22;9458;50.942;5.074;2022-08-21T01:44:02;17.90;99.90
18658;DHT22;9458;50.942;5.074;2022-08-21T01:46:30;17.90;99.90
18658;DHT22;9458;50.942;5.074;2022-08-21T01:48:58;17.90;99.90
18658;DHT22;9458;50.942;5.074;2022-08-21T01:51:26;17.90;99.90
18658;DHT22;9458;50.942;5.074;2022-08-21T01:53:53;17.90;99.90
18658;DHT22;9458;50.942;5.074;2022-08-21T01:56:22;17.80;99.90
18658;DHT22;9458;50.942;5.074;2022-08-21T01:58:50;17.80;99.90
18658;DHT22;9458;50.942;5.074;2022-08-21T02:01:17;17.70;99.90
18658;DHT22;9458;50.942;5.074;2022-08-21T02:03:44;17.70;99.90
18658;DHT22;9458;50.942;5.074;2022-08-21T02:06:14;17.60;99.90
18658;DHT22;9458;50.942;5.074;2022-08-21T02:08:44;17.60;99.90
18658;DHT22;9458;50.942;5.074;2022-08-21T02:11:11;17.50;99.90
18658;DHT22;9458;50.942;5.074;2022-08-21T02:13:40;17.50;99.90
18658;DHT22;9458;50.942;5.074;2022-08-21T02:16:09;17.50;99.90
18658;DHT22;9458;50.942;5.074;2022-08-21T02:18:37;17.50;99.90
18658;DHT22;9458;50.942;5.074;2022-08-21T02:21:05;17.50;99.90
18658;DHT22;9458;50.942;5.074;2022-08-21T02:23:33;17.50;99.90
18658;DHT22;9458;50.942;5.074;2022-08-21T02:26:02;17.40;99.90
18658;DHT22;9458;50.942;5.074;2022-08-21T02:28:29;17.40;99.90
18658;DHT22;9458;50.942;5.074;2022-08-21T02:30:59;17.40;99.90
18658;DHT22;9458;50.942;5.074;2022-08-21T02:33:27;17.40;99.90
18658;DHT22;9458;50.942;5.074;2022-08-21T02:35:55;17.40;99.90
18658;DHT22;9458;50.942;5.074;2022-08-21T02:38:27;17.40;99.90
18658;DHT22;9458;50.942;5.074;2022-08-21T02:40:55;17.30;99.90
18658;DHT22;9458;50.942;5.074;2022-08-21T02:43:25;17.30;99.90
18658;DHT22;9458;50.942;5.074;2022-08-21T02:45:54;17.30;99.90
18658;DHT22;9458;50.942;5.074;2022-08-21T02:48:25;17.30;99.90
18658;DHT22;9458;50.942;5.074;2022-08-21T02:50:55;17.20;99.90
18658;DHT22;9458;50.942;5.074;2022-08-21T02:53:23;17.20;99.90
18658;DHT22;9458;50.942;5.074;2022-08-21T02:55:51;17.20;99.90
18658;DHT22;9458;50.942;5.074;2022-08-21T02:58:23;17.20;99.90
18658;DHT22;9458;50.942;5.074;2022-08-21T03:00:51;17.10;99.90
18658;DHT22;9458;50.942;5.074;2022-08-21T03:03:30;17.10;99.90
18658;DHT22;9458;50.942;5.074;2022-08-21T03:06:02;17.10;99.90
18658;DHT22;9458;50.942;5.074;2022-08-21T03:08:30;17.10;99.90
18658;DHT22;9458;50.942;5.074;2022-08-21T03:10:59;17.10;99.90
18658;DHT22;9458;50.942;5.074;2022-08-21T03:13:29;17.10;99.90
18658;DHT22;9458;50.942;5.074;2022-08-21T03:15:58;17.10;99.90
18658;DHT22;9458;50.942;5.074;2022-08-21T03:18:30;17.10;99.90
18658;DHT22;9458;50.942;5.074;2022-08-21T03:20:58;17.10;99.90
18658;DHT22;9458;50.942;5.074;2022-08-21T03:23:30;17.00;99.90
18658;DHT22;9458;50.942;5.074;2022-08-21T03:25:58;17.00;99.90
18658;DHT22;9458;50.942;5.074;2022-08-21T03:28:28;17.00;99.90
18658;DHT22;9458;50.942;5.074;2022-08-21T03:30:57;17.00;99.90
18658;DHT22;9458;50.942;5.074;2022-08-21T03:33:33;17.00;99.90
18658;DHT22;9458;50.942;5.074;2022-08-21T03:36:05;16.90;99.90
18658;DHT22;9458;50.942;5.074;2022-08-21T03:38:36;16.90;99.90
18658;DHT22;9458;50.942;5.074;2022-08-21T03:41:14;16.90;99.90
18658;DHT22;9458;50.942;5.074;2022-08-21T03:43:43;16.80;99.90
18658;DHT22;9458;50.942;5.074;2022-08-21T03:46:13;16.80;99.90
18658;DHT22;9458;50.942;5.074;2022-08-21T03:48:43;16.80;99.90
18658;DHT22;9458;50.942;5.074;2022-08-21T03:51:11;16.80;99.90
18658;DHT22;9458;50.942;5.074;2022-08-21T03:53:41;16.80;99.90
18658;DHT22;9458;50.942;5.074;2022-08-21T03:56:14;16.70;99.90
18658;DHT22;9458;50.942;5.074;2022-08-21T03:58:43;16.60;99.90
18658;DHT22;9458;50.942;5.074;2022-08-21T04:01:13;16.60;99.90
18658;DHT22;9458;50.942;5.074;2022-08-21T04:03:43;16.60;99.90
18658;DHT22;9458;50.942;5.074;2022-08-21T04:06:10;16.60;99.90
18658;DHT22;9458;50.942;5.074;2022-08-21T04:08:38;16.60;99.90
18658;DHT22;9458;50.942;5.074;2022-08-21T04:11:09;16.50;99.90
18658;DHT22;9458;50.942;5.074;2022-08-21T04:13:37;16.50;99.90
18658;DHT22;9458;50.942;5.074;2022-08-21T04:16:07;16.50;99.90
18658;DHT22;9458;50.942;5.074;2022-08-21T04:18:35;16.50;99.90
18658;DHT22;9458;50.942;5.074;2022-08-21T04:21:06;16.50;99.90
18658;DHT22;9458;50.942;5.074;2022-08-21T04:26:04;16.50;99.90
18658;DHT22;9458;50.942;5.074;2022-08-21T04:28:33;16.50;99.90
18658;DHT22;9458;50.942;5.074;2022-08-21T04:31:01;16.50;99.90
18658;DHT22;9458;50.942;5.074;2022-08-21T04:33:33;16.50;99.90
18658;DHT22;9458;50.942;5.074;2022-08-21T04:36:01;16.50;99.90
18658;DHT22;9458;50.942;5.074;2022-08-21T04:38:30;16.50;99.90
18658;DHT22;9458;50.942;5.074;2022-08-21T04:40:58;16.50;99.90
18658;DHT22;9458;50.942;5.074;2022-08-21T04:43:27;16.50;99.90
18658;DHT22;9458;50.942;5.074;2022-08-21T04:45:56;16.50;99.90
18658;DHT22;9458;50.942;5.074;2022-08-21T04:48:24;16.50;99.90
18658;DHT22;9458;50.942;5.074;2022-08-21T04:50:55;16.50;99.90
18658;DHT22;9458;50.942;5.074;2022-08-21T04:53:27;16.50;99.90
18658;DHT22;9458;50.942;5.074;2022-08-21T04:56:05;16.50;99.90
18658;DHT22;9458;50.942;5.074;2022-08-21T04:58:35;16.60;99.90
18658;DHT22;9458;50.942;5.074;2022-08-21T05:01:07;16.60;99.90
18658;DHT22;9458;50.942;5.074;2022-08-21T05:03:36;16.70;99.90
18658;DHT22;9458;50.942;5.074;2022-08-21T05:06:06;16.70;99.90
18658;DHT22;9458;50.942;5.074;2022-08-21T05:08:36;16.80;99.90
18658;DHT22;9458;50.942;5.074;2022-08-21T05:11:07;16.80;99.90
18658;DHT22;9458;50.942;5.074;2022-08-21T05:13:35;16.90;99.90
18658;DHT22;9458;50.942;5.074;2022-08-21T05:16:03;17.00;99.90
18658;DHT22;9458;50.942;5.074;2022-08-21T05:18:31;17.00;99.90
18658;DHT22;9458;50.942;5.074;2022-08-21T05:21:00;17.20;99.90
18658;DHT22;9458;50.942;5.074;2022-08-21T05:23:28;17.20;99.90
18658;DHT22;9458;50.942;5.074;2022-08-21T05:25:55;17.30;99.90
18658;DHT22;9458;50.942;5.074;2022-08-21T05:28:24;17.40;99.90
18658;DHT22;9458;50.942;5.074;2022-08-21T05:30:52;17.50;99.90
18658;DHT22;9458;50.942;5.074;2022-08-21T05:33:20;17.60;99.90
18658;DHT22;9458;50.942;5.074;2022-08-21T05:35:50;17.70;99.90
18658;DHT22;9458;50.942;5.074;2022-08-21T05:38:18;17.80;99.90
18658;DHT22;9458;50.942;5.074;2022-08-21T05:40:46;17.90;99.90
18658;DHT22;9458;50.942;5.074;2022-08-21T05:43:14;18.00;99.90
18658;DHT22;9458;50.942;5.074;2022-08-21T05:45:43;18.10;99.90
18658;DHT22;9458;50.942;5.074;2022-08-21T05:48:13;18.20;99.90
18658;DHT22;9458;50.942;5.074;2022-08-21T05:50:41;18.40;99.90
18658;DHT22;9458;50.942;5.074;2022-08-21T05:53:09;18.50;99.90
18658;DHT22;9458;50.942;5.074;2022-08-21T05:55:38;18.60;99.90
18658;DHT22;9458;50.942;5.074;2022-08-21T05:58:06;18.80;99.90
18658;DHT22;9458;50.942;5.074;2022-08-21T06:00:33;19.00;99.90
18658;DHT22;9458;50.942;5.074;2022-08-21T06:03:02;19.20;99.90
18658;DHT22;9458;50.942;5.074;2022-08-21T06:05:30;19.50;99.90
18658;DHT22;9458;50.942;5.074;2022-08-21T06:07:57;19.80;99.90
18658;DHT22;9458;50.942;5.074;2022-08-21T06:10:25;20.20;99.90
18658;DHT22;9458;50.942;5.074;2022-08-21T06:12:53;20.50;99.90
18658;DHT22;9458;50.942;5.074;2022-08-21T06:15:21;20.90;99.90
18658;DHT22;9458;50.942;5.074;2022-08-21T06:17:49;21.40;99.90
18658;DHT22;9458;50.942;5.074;2022-08-21T06:20:17;21.80;99.90
18658;DHT22;9458;50.942;5.074;2022-08-21T06:22:45;22.20;99.90
18658;DHT22;9458;50.942;5.074;2022-08-21T06:25:12;22.80;99.90
18658;DHT22;9458;50.942;5.074;2022-08-21T06:27:39;23.40;99.90
18658;DHT22;9458;50.942;5.074;2022-08-21T06:30:08;23.90;99.90
18658;DHT22;9458;50.942;5.074;2022-08-21T06:32:36;24.40;99.90
18658;DHT22;9458;50.942;5.074;2022-08-21T06:35:05;24.80;99.90
18658;DHT22;9458;50.942;5.074;2022-08-21T06:37:33;25.20;99.90
18658;DHT22;9458;50.942;5.074;2022-08-21T06:40:01;25.50;99.90
18658;DHT22;9458;50.942;5.074;2022-08-21T06:42:29;25.90;99.90
18658;DHT22;9458;50.942;5.074;2022-08-21T06:44:57;26.30;99.80
18658;DHT22;9458;50.942;5.074;2022-08-21T06:47:24;26.60;99.20
18658;DHT22;9458;50.942;5.074;2022-08-21T06:49:52;26.90;99.30
18658;DHT22;9458;50.942;5.074;2022-08-21T06:52:19;27.20;98.50
18658;DHT22;9458;50.942;5.074;2022-08-21T06:54:48;27.50;97.90
18658;DHT22;9458;50.942;5.074;2022-08-21T06:57:16;27.70;97.60
18658;DHT22;9458;50.942;5.074;2022-08-21T06:59:43;28.00;96.70
18658;DHT22;9458;50.942;5.074;2022-08-21T07:02:11;28.30;96.80
18658;DHT22;9458;50.942;5.074;2022-08-21T07:04:38;28.50;96.90
18658;DHT22;9458;50.942;5.074;2022-08-21T07:07:06;28.80;96.70
18658;DHT22;9458;50.942;5.074;2022-08-21T07:09:33;29.10;96.20
18658;DHT22;9458;50.942;5.074;2022-08-21T07:12:03;29.20;95.80
18658;DHT22;9458;50.942;5.074;2022-08-21T07:14:30;29.00;95.80
18658;DHT22;9458;50.942;5.074;2022-08-21T07:16:58;28.90;95.90
18658;DHT22;9458;50.942;5.074;2022-08-21T07:19:26;29.00;96.00
18658;DHT22;9458;50.942;5.074;2022-08-21T07:21:57;29.40;95.90
18658;DHT22;9458;50.942;5.074;2022-08-21T07:24:25;29.80;95.60
18658;DHT22;9458;50.942;5.074;2022-08-21T07:26:53;30.10;95.10
18658;DHT22;9458;50.942;5.074;2022-08-21T07:29:22;29.70;94.90
18658;DHT22;9458;50.942;5.074;2022-08-21T07:31:49;29.30;95.20
18658;DHT22;9458;50.942;5.074;2022-08-21T07:34:17;28.90;95.60
18658;DHT22;9458;50.942;5.074;2022-08-21T07:36:44;28.70;96.00
18658;DHT22;9458;50.942;5.074;2022-08-21T07:39:12;28.60;95.90
18658;DHT22;9458;50.942;5.074;2022-08-21T07:41:42;29.00;96.00
18658;DHT22;9458;50.942;5.074;2022-08-21T07:44:10;29.40;95.70
18658;DHT22;9458;50.942;5.074;2022-08-21T07:46:38;29.80;95.40
18658;DHT22;9458;50.942;5.074;2022-08-21T07:49:06;30.40;95.00
18658;DHT22;9458;50.942;5.074;2022-08-21T07:51:34;30.90;94.20
18658;DHT22;9458;50.942;5.074;2022-08-21T07:54:01;31.40;94.20
18658;DHT22;9458;50.942;5.074;2022-08-21T07:56:30;31.70;93.60
18658;DHT22;9458;50.942;5.074;2022-08-21T07:58:58;32.00;93.20
18658;DHT22;9458;50.942;5.074;2022-08-21T08:01:28;31.80;92.90
18658;DHT22;9458;50.942;5.074;2022-08-21T08:03:57;31.30;92.80
18658;DHT22;9458;50.942;5.074;2022-08-21T08:06:25;31.20;93.20
18658;DHT22;9458;50.942;5.074;2022-08-21T08:08:52;31.70;93.00
18658;DHT22;9458;50.942;5.074;2022-08-21T08:11:20;32.00;92.70
18658;DHT22;9458;50.942;5.074;2022-08-21T08:13:51;32.30;92.50
18658;DHT22;9458;50.942;5.074;2022-08-21T08:16:18;32.70;92.10
18658;DHT22;9458;50.942;5.074;2022-08-21T08:18:46;33.10;91.50
18658;DHT22;9458;50.942;5.074;2022-08-21T08:21:15;33.40;90.80
18658;DHT22;9458;50.942;5.074;2022-08-21T08:23:44;33.70;90.90
18658;DHT22;9458;50.942;5.074;2022-08-21T08:26:12;33.70;90.50
18658;DHT22;9458;50.942;5.074;2022-08-21T08:28:41;34.10;90.10
18658;DHT22;9458;50.942;5.074;2022-08-21T08:31:09;34.50;89.30
18658;DHT22;9458;50.942;5.074;2022-08-21T08:33:37;34.90;88.50
18658;DHT22;9458;50.942;5.074;2022-08-21T08:36:05;35.40;88.00
18658;DHT22;9458;50.942;5.074;2022-08-21T08:38:34;35.80;86.90
18658;DHT22;9458;50.942;5.074;2022-08-21T08:41:05;35.90;84.90
18658;DHT22;9458;50.942;5.074;2022-08-21T08:43:36;35.60;84.10
18658;DHT22;9458;50.942;5.074;2022-08-21T08:46:12;35.60;84.20
18658;DHT22;9458;50.942;5.074;2022-08-21T08:48:45;35.70;84.00
18658;DHT22;9458;50.942;5.074;2022-08-21T08:51:18;35.80;83.20
18658;DHT22;9458;50.942;5.074;2022-08-21T08:53:52;35.90;82.70
18658;DHT22;9458;50.942;5.074;2022-08-21T08:56:27;35.90;82.90
18658;DHT22;9458;50.942;5.074;2022-08-21T08:59:00;36.00;82.10
18658;DHT22;9458;50.942;5.074;2022-08-21T09:01:28;36.00;82.30
18658;DHT22;9458;50.942;5.074;2022-08-21T09:03:56;36.00;81.50
18658;DHT22;9458;50.942;5.074;2022-08-21T09:06:34;36.00;83.30
18658;DHT22;9458;50.942;5.074;2022-08-21T09:09:16;35.70;82.00
18658;DHT22;9458;50.942;5.074;2022-08-21T09:11:52;35.30;82.10
18658;DHT22;9458;50.942;5.074;2022-08-21T09:14:28;34.90;80.90
18658;DHT22;9458;50.942;5.074;2022-08-21T09:17:04;34.70;81.90
18658;DHT22;9458;50.942;5.074;2022-08-21T09:19:45;34.90;82.10
18658;DHT22;9458;50.942;5.074;2022-08-21T09:22:23;35.40;82.60
18658;DHT22;9458;50.942;5.074;2022-08-21T09:25:01;35.70;81.50
18658;DHT22;9458;50.942;5.074;2022-08-21T09:27:30;35.80;80.80
18658;DHT22;9458;50.942;5.074;2022-08-21T09:29:58;35.70;80.10
18658;DHT22;9458;50.942;5.074;2022-08-21T09:32:28;35.80;79.90
18658;DHT22;9458;50.942;5.074;2022-08-21T09:34:58;35.90;80.20
18658;DHT22;9458;50.942;5.074;2022-08-21T09:37:28;36.20;80.60
18658;DHT22;9458;50.942;5.074;2022-08-21T09:39:58;36.40;79.30
18658;DHT22;9458;50.942;5.074;2022-08-21T09:42:28;36.60;80.60
18658;DHT22;9458;50.942;5.074;2022-08-21T09:45:09;36.80;78.20
18658;DHT22;9458;50.942;5.074;2022-08-21T09:47:37;37.00;76.70
18658;DHT22;9458;50.942;5.074;2022-08-21T09:50:10;37.00;77.50
18658;DHT22;9458;50.942;5.074;2022-08-21T09:52:44;37.00;75.50
18658;DHT22;9458;50.942;5.074;2022-08-21T09:55:28;36.70;76.40
18658;DHT22;9458;50.942;5.074;2022-08-21T09:58:14;36.40;77.00
18658;DHT22;9458;50.942;5.074;2022-08-21T10:00:42;36.00;77.90
18658;DHT22;9458;50.942;5.074;2022-08-21T10:03:13;35.50;77.60
18658;DHT22;9458;50.942;5.074;2022-08-21T10:05:54;34.70;79.50
18658;DHT22;9458;50.942;5.074;2022-08-21T10:08:25;34.30;83.10
18658;DHT22;9458;50.942;5.074;2022-08-21T10:10:56;33.90;82.90
18658;DHT22;9458;50.942;5.074;2022-08-21T10:13:40;33.60;83.20
18658;DHT22;9458;50.942;5.074;2022-08-21T10:16:22;33.40;84.50
18658;DHT22;9458;50.942;5.074;2022-08-21T10:19:01;33.20;85.00
18658;DHT22;9458;50.942;5.074;2022-08-21T10:21:35;32.90;84.10
18658;DHT22;9458;50.942;5.074;2022-08-21T10:24:11;32.70;84.90
18658;DHT22;9458;50.942;5.074;2022-08-21T10:26:54;32.60;86.30
18658;DHT22;9458;50.942;5.074;2022-08-21T10:29:38;32.40;86.50
18658;DHT22;9458;50.942;5.074;2022-08-21T10:32:15;32.10;84.50
18658;DHT22;9458;50.942;5.074;2022-08-21T10:34:53;31.90;85.30
18658;DHT22;9458;50.942;5.074;2022-08-21T10:37:34;31.80;85.80
18658;DHT22;9458;50.942;5.074;2022-08-21T10:40:12;31.60;85.50
18658;DHT22;9458;50.942;5.074;2022-08-21T10:42:53;31.60;85.40
18658;DHT22;9458;50.942;5.074;2022-08-21T10:45:32;31.40;86.50
18658;DHT22;9458;50.942;5.074;2022-08-21T10:48:05;31.40;86.20
18658;DHT22;9458;50.942;5.074;2022-08-21T10:50:41;31.30;87.00
18658;DHT22;9458;50.942;5.074;2022-08-21T10:53:22;31.30;88.10
18658;DHT22;9458;50.942;5.074;2022-08-21T10:55:56;31.30;87.50
18658;DHT22;9458;50.942;5.074;2022-08-21T10:58:30;31.30;86.50
18658;DHT22;9458;50.942;5.074;2022-08-21T11:01:04;31.10;87.00
18658;DHT22;9458;50.942;5.074;2022-08-21T11:03:41;31.00;86.70
18658;DHT22;9458;50.942;5.074;2022-08-21T11:06:14;31.00;86.50
18658;DHT22;9458;50.942;5.074;2022-08-21T11:08:44;30.80;86.00
18658;DHT22;9458;50.942;5.074;2022-08-21T11:11:17;30.70;86.40
18658;DHT22;9458;50.942;5.074;2022-08-21T11:13:52;30.60;86.40
18658;DHT22;9458;50.942;5.074;2022-08-21T11:16:27;30.60;86.60
18658;DHT22;9458;50.942;5.074;2022-08-21T11:19:02;30.50;86.60
18658;DHT22;9458;50.942;5.074;2022-08-21T11:21:37;30.40;87.10
18658;DHT22;9458;50.942;5.074;2022-08-21T11:24:21;30.30;86.60
18658;DHT22;9458;50.942;5.074;2022-08-21T11:26:54;30.20;87.40
18658;DHT22;9458;50.942;5.074;2022-08-21T11:29:29;30.10;87.50
18658;DHT22;9458;50.942;5.074;2022-08-21T11:32:05;29.90;87.90
18658;DHT22;9458;50.942;5.074;2022-08-21T11:34:47;29.90;88.50
18658;DHT22;9458;50.942;5.074;2022-08-21T11:37:31;29.80;88.30
18658;DHT22;9458;50.942;5.074;2022-08-21T11:40:05;29.70;87.50
18658;DHT22;9458;50.942;5.074;2022-08-21T11:42:40;29.60;87.40
18658;DHT22;9458;50.942;5.074;2022-08-21T11:45:17;29.50;89.30
18658;DHT22;9458;50.942;5.074;2022-08-21T11:47:56;29.30;88.80
18658;DHT22;9458;50.942;5.074;2022-08-21T11:50:28;29.40;89.30
18658;DHT22;9458;50.942;5.074;2022-08-21T11:53:00;29.40;89.80
18658;DHT22;9458;50.942;5.074;2022-08-21T11:55:31;29.40;89.70
18658;DHT22;9458;50.942;5.074;2022-08-21T11:58:02;29.40;89.80
18658;DHT22;9458;50.942;5.074;2022-08-21T12:12:31;29.40;88.50
18658;DHT22;9458;50.942;5.074;2022-08-21T12:15:25;29.30;90.60
18658;DHT22;9458;50.942;5.074;2022-08-21T12:17:59;29.30;90.50
18658;DHT22;9458;50.942;5.074;2022-08-21T12:20:41;29.20;90.00
18658;DHT22;9458;50.942;5.074;2022-08-21T12:23:18;29.20;90.50
18658;DHT22;9458;50.942;5.074;2022-08-21T12:26:01;29.10;90.00
18658;DHT22;9458;50.942;5.074;2022-08-21T12:28:31;29.10;90.40
18658;DHT22;9458;50.942;5.074;2022-08-21T12:30:59;29.20;90.60
18658;DHT22;9458;50.942;5.074;2022-08-21T12:33:30;29.10;90.50
18658;DHT22;9458;50.942;5.074;2022-08-21T12:36:05;29.10;89.30
18658;DHT22;9458;50.942;5.074;2022-08-21T12:38:42;29.00;87.70
18658;DHT22;9458;50.942;5.074;2022-08-21T12:41:18;29.00;87.40
18658;DHT22;9458;50.942;5.074;2022-08-21T12:43:52;29.00;88.00
18658;DHT22;9458;50.942;5.074;2022-08-21T12:46:32;28.90;88.10
18658;DHT22;9458;50.942;5.074;2022-08-21T12:49:12;28.80;87.40
18658;DHT22;9458;50.942;5.074;2022-08-21T12:51:52;28.80;88.40
18658;DHT22;9458;50.942;5.074;2022-08-21T12:54:24;28.80;88.80
18658;DHT22;9458;50.942;5.074;2022-08-21T12:56:57;28.70;88.70
18658;DHT22;9458;50.942;5.074;2022-08-21T12:59:28;28.70;89.00
18658;DHT22;9458;50.942;5.074;2022-08-21T13:01:57;28.60;88.10
18658;DHT22;9458;50.942;5.074;2022-08-21T13:04:34;28.50;88.60
18658;DHT22;9458;50.942;5.074;2022-08-21T13:07:07;28.40;88.70
18658;DHT22;9458;50.942;5.074;2022-08-21T13:09:43;28.40;89.50
18658;DHT22;9458;50.942;5.074;2022-08-21T13:12:11;28.30;90.00
18658;DHT22;9458;50.942;5.074;2022-08-21T13:14:42;28.40;90.50
18658;DHT22;9458;50.942;5.074;2022-08-21T13:17:14;28.40;90.50
18658;DHT22;9458;50.942;5.074;2022-08-21T13:19:42;28.30;89.10
18658;DHT22;9458;50.942;5.074;2022-08-21T13:22:14;28.30;89.50
18658;DHT22;9458;50.942;5.074;2022-08-21T13:24:42;28.30;90.00
18658;DHT22;9458;50.942;5.074;2022-08-21T13:27:24;28.30;90.10
18658;DHT22;9458;50.942;5.074;2022-08-21T13:30:09;28.30;90.50
18658;DHT22;9458;50.942;5.074;2022-08-21T13:32:41;28.30;90.10
18658;DHT22;9458;50.942;5.074;2022-08-21T13:35:11;28.20;89.70
18658;DHT22;9458;50.942;5.074;2022-08-21T13:37:41;28.10;90.00
18658;DHT22;9458;50.942;5.074;2022-08-21T13:40:13;28.10;88.90
18658;DHT22;9458;50.942;5.074;2022-08-21T13:42:45;28.00;89.20
18658;DHT22;9458;50.942;5.074;2022-08-21T13:45:22;28.00;90.10
18658;DHT22;9458;50.942;5.074;2022-08-21T13:47:52;28.00;89.10
18658;DHT22;9458;50.942;5.074;2022-08-21T13:50:24;28.00;89.30
18658;DHT22;9458;50.942;5.074;2022-08-21T13:52:59;27.90;88.30
18658;DHT22;9458;50.942;5.074;2022-08-21T13:55:35;27.90;89.30
18658;DHT22;9458;50.942;5.074;2022-08-21T13:58:04;27.80;90.10
18658;DHT22;9458;50.942;5.074;2022-08-21T14:00:43;27.70;90.10
18658;DHT22;9458;50.942;5.074;2022-08-21T14:03:11;27.70;89.70
18658;DHT22;9458;50.942;5.074;2022-08-21T14:05:45;27.60;90.70
18658;DHT22;9458;50.942;5.074;2022-08-21T14:08:18;27.60;90.70
18658;DHT22;9458;50.942;5.074;2022-08-21T14:10:49;27.60;90.60
18658;DHT22;9458;50.942;5.074;2022-08-21T14:13:36;27.60;90.60
18658;DHT22;9458;50.942;5.074;2022-08-21T14:16:15;27.60;91.10
18658;DHT22;9458;50.942;5.074;2022-08-21T14:18:45;27.60;90.60
18658;DHT22;9458;50.942;5.074;2022-08-21T14:21:30;27.60;90.80
18658;DHT22;9458;50.942;5.074;2022-08-21T14:24:08;27.70;90.60
18658;DHT22;9458;50.942;5.074;2022-08-21T14:26:44;27.80;90.70
18658;DHT22;9458;50.942;5.074;2022-08-21T14:29:15;27.80;90.90
18658;DHT22;9458;50.942;5.074;2022-08-21T14:31:50;27.90;91.30
18658;DHT22;9458;50.942;5.074;2022-08-21T14:34:19;27.90;90.90
18658;DHT22;9458;50.942;5.074;2022-08-21T14:36:48;27.90;90.90
18658;DHT22;9458;50.942;5.074;2022-08-21T14:39:16;27.90;90.50
18658;DHT22;9458;50.942;5.074;2022-08-21T14:41:44;27.80;90.00
18658;DHT22;9458;50.942;5.074;2022-08-21T14:44:18;27.80;89.50
18658;DHT22;9458;50.942;5.074;2022-08-21T14:46:49;27.80;89.30
18658;DHT22;9458;50.942;5.074;2022-08-21T14:49:16;27.70;88.90
18658;DHT22;9458;50.942;5.074;2022-08-21T14:51:45;27.70;88.40
18658;DHT22;9458;50.942;5.074;2022-08-21T14:54:13;27.60;88.20
18658;DHT22;9458;50.942;5.074;2022-08-21T14:56:40;27.60;88.90
18658;DHT22;9458;50.942;5.074;2022-08-21T14:59:08;27.50;89.10
18658;DHT22;9458;50.942;5.074;2022-08-21T15:01:48;27.50;90.00
18658;DHT22;9458;50.942;5.074;2022-08-21T15:04:19;27.50;90.40
18658;DHT22;9458;50.942;5.074;2022-08-21T15:06:47;27.50;90.30
18658;DHT22;9458;50.942;5.074;2022-08-21T15:09:18;27.50;91.10
18658;DHT22;9458;50.942;5.074;2022-08-21T15:11:50;27.40;90.90
18658;DHT22;9458;50.942;5.074;2022-08-21T15:14:22;27.40;91.40
18658;DHT22;9458;50.942;5.074;2022-08-21T15:16:51;27.40;90.80
18658;DHT22;9458;50.942;5.074;2022-08-21T15:19:25;27.40;90.30
18658;DHT22;9458;50.942;5.074;2022-08-21T15:21:55;27.40;90.60
18658;DHT22;9458;50.942;5.074;2022-08-21T15:24:23;27.40;90.70
18658;DHT22;9458;50.942;5.074;2022-08-21T15:26:53;27.30;90.80
18658;DHT22;9458;50.942;5.074;2022-08-21T15:29:22;27.30;90.70
18658;DHT22;9458;50.942;5.074;2022-08-21T15:31:52;27.20;90.70
18658;DHT22;9458;50.942;5.074;2022-08-21T15:34:22;27.20;90.70
18658;DHT22;9458;50.942;5.074;2022-08-21T15:36:51;27.20;91.10
18658;DHT22;9458;50.942;5.074;2022-08-21T15:39:18;27.20;91.20
18658;DHT22;9458;50.942;5.074;2022-08-21T15:41:46;27.20;90.90
18658;DHT22;9458;50.942;5.074;2022-08-21T15:44:15;27.20;90.80
18658;DHT22;9458;50.942;5.074;2022-08-21T15:46:43;27.20;90.90
18658;DHT22;9458;50.942;5.074;2022-08-21T15:49:11;27.20;91.00
18658;DHT22;9458;50.942;5.074;2022-08-21T15:51:40;27.10;90.60
18658;DHT22;9458;50.942;5.074;2022-08-21T15:54:09;27.00;91.00
18658;DHT22;9458;50.942;5.074;2022-08-21T15:56:39;27.00;91.20
18658;DHT22;9458;50.942;5.074;2022-08-21T15:59:14;27.00;91.00
18658;DHT22;9458;50.942;5.074;2022-08-21T16:01:42;26.90;91.30
18658;DHT22;9458;50.942;5.074;2022-08-21T16:04:10;26.80;90.90
18658;DHT22;9458;50.942;5.074;2022-08-21T16:06:41;26.80;90.80
18658;DHT22;9458;50.942;5.074;2022-08-21T16:09:09;26.80;91.10
18658;DHT22;9458;50.942;5.074;2022-08-21T16:11:36;26.80;91.40
18658;DHT22;9458;50.942;5.074;2022-08-21T16:14:05;26.70;91.70
18658;DHT22;9458;50.942;5.074;2022-08-21T16:16:34;26.60;91.40
18658;DHT22;9458;50.942;5.074;2022-08-21T16:19:03;26.60;91.40
18658;DHT22;9458;50.942;5.074;2022-08-21T16:21:32;26.60;91.60
18658;DHT22;9458;50.942;5.074;2022-08-21T16:24:02;26.60;92.00